createdAt,value
2019-01-21T00:00:46.479Z,100.00
2019-01-21T00:16:19.879Z,100.00
2019-01-21T00:31:52.869Z,100.00
2019-01-21T00:47:30.123Z,100.00
2019-01-21T01:03:01.072Z,100.00
2019-01-21T01:18:34.349Z,100.00
2019-01-21T01:34:07.408Z,100.00
2019-01-21T01:49:40.297Z,100.00
2019-01-21T02:05:13.397Z,100.00
2019-01-21T02:20:46.488Z,100.00
2019-01-21T02:36:24.733Z,100.00
2019-01-21T02:52:03.587Z,100.00
2019-01-21T03:07:45.465Z,100.00
2019-01-21T03:40:00.379Z,100.00
2019-01-21T03:55:35.412Z,100.00
2019-01-21T04:11:33.672Z,100.00
2019-01-21T04:27:14.035Z,100.00
2019-01-21T04:43:09.876Z,100.00
2019-01-21T04:59:02.867Z,100.00
2019-01-21T05:30:58.174Z,100.00
2019-01-21T05:46:46.424Z,100.00
2019-01-21T06:02:40.137Z,100.00
2019-01-21T06:18:27.997Z,100.00
2019-01-21T06:33:44.480Z,100.00
2019-01-21T06:49:04.643Z,100.00
2019-01-21T07:20:04.036Z,100.00
2019-01-21T07:35:26.256Z,100.00
2019-01-21T08:06:16.175Z,100.00
2019-01-21T08:21:43.377Z,100.00
2019-01-21T08:37:11.360Z,100.00
2019-01-21T08:52:19.149Z,100.00
2019-01-21T09:07:34.391Z,100.00
2019-01-21T09:22:44.575Z,100.00
2019-01-21T09:38:03.070Z,100.00
2019-01-21T09:53:07.127Z,100.00
2019-01-21T10:08:20.525Z,100.00
2019-01-21T10:23:28.720Z,100.00
2019-01-21T10:38:39.781Z,100.00
2019-01-21T10:53:47.242Z,99.86
2019-01-21T11:09:14.394Z,98.59
2019-01-21T11:55:58.274Z,92.68
2019-01-21T12:11:24.470Z,91.82
2019-01-21T12:26:57.593Z,94.94
2019-01-21T12:42:04.187Z,94.11
2019-01-21T12:57:19.174Z,93.88
2019-01-21T13:28:16.713Z,95.84
2019-01-21T13:43:29.118Z,95.84
2019-01-21T14:14:19.443Z,100.00
2019-01-21T14:29:33.218Z,100.00
2019-01-21T14:44:47.338Z,100.00
2019-01-21T15:00:12.579Z,100.00
2019-01-21T15:31:06.462Z,100.00
2019-01-21T15:46:26.365Z,100.00
2019-01-21T16:17:16.663Z,100.00
2019-01-21T16:32:51.067Z,100.00
2019-01-21T16:48:25.153Z,100.00
2019-01-21T17:03:58.786Z,100.00
2019-01-21T17:19:31.759Z,100.00
2019-01-21T17:35:04.709Z,100.00
2019-01-21T17:50:38.573Z,100.00
2019-01-21T18:06:11.540Z,100.00
2019-01-21T18:21:44.620Z,100.00
2019-01-21T18:37:17.439Z,100.00
2019-01-21T18:52:50.936Z,100.00
2019-01-21T19:08:23.746Z,100.00
2019-01-21T19:23:56.888Z,100.00
2019-01-21T19:38:59.550Z,100.00
2019-01-21T19:54:02.195Z,100.00
2019-01-21T20:09:07.480Z,100.00
2019-01-21T20:24:10.075Z,100.00
2019-01-21T20:39:13.652Z,100.00
2019-01-21T20:54:17.440Z,100.00
2019-01-21T21:09:22.208Z,100.00
2019-01-21T21:24:24.826Z,100.00
2019-01-21T21:39:28.586Z,100.00
2019-01-21T21:54:31.177Z,100.00
2019-01-21T22:10:04.727Z,100.00
2019-01-21T22:25:37.662Z,100.00
2019-01-21T22:41:10.790Z,100.00
2019-01-21T22:56:43.838Z,100.00
2019-01-21T23:12:16.959Z,100.00
2019-01-21T23:27:50.017Z,100.00
2019-01-21T23:43:23.209Z,100.00
2019-01-21T23:58:57.021Z,100.00
